createdAt,value
2022-12-19T00:00:32.296Z,-2.10
2022-12-19T00:03:00.531Z,-2.13
2022-12-19T00:05:28.621Z,-2.12
2022-12-19T00:07:56.590Z,-2.13
2022-12-19T00:10:25.973Z,-2.09
2022-12-19T00:12:53.979Z,-2.12
2022-12-19T00:15:23.729Z,-2.11
2022-12-19T00:17:51.670Z,-2.11
2022-12-19T00:20:19.588Z,-2.09
2022-12-19T00:22:47.501Z,-2.08
2022-12-19T00:25:17.944Z,-2.09
2022-12-19T00:27:47.292Z,-2.10
2022-12-19T00:30:15.213Z,-2.10
2022-12-19T00:32:44.698Z,-2.12
2022-12-19T00:35:12.809Z,-2.11
2022-12-19T00:37:43.434Z,-2.08
2022-12-19T00:40:18.346Z,-2.10
2022-12-19T00:42:51.700Z,-2.11
2022-12-19T00:45:21.323Z,-2.14
2022-12-19T00:47:50.750Z,-2.11
2022-12-19T00:50:18.796Z,-2.12
2022-12-19T00:52:46.818Z,-2.13
2022-12-19T00:55:19.037Z,-2.12
2022-12-19T00:57:47.834Z,-2.07
2022-12-19T01:00:19.040Z,-2.05
2022-12-19T01:02:47.195Z,-2.05
2022-12-19T01:05:17.420Z,-2.01
2022-12-19T01:07:45.410Z,-2.03
2022-12-19T01:10:13.379Z,-2.02
2022-12-19T01:12:46.215Z,-2.04
2022-12-19T01:15:14.965Z,-2.02
2022-12-19T01:17:44.445Z,-2.01
2022-12-19T01:20:14.089Z,-2.04
2022-12-19T01:22:43.465Z,-2.06
2022-12-19T01:25:11.786Z,-2.07
2022-12-19T01:27:39.733Z,-2.10
2022-12-19T01:30:09.228Z,-2.12
2022-12-19T01:32:37.663Z,-2.11
2022-12-19T01:35:06.489Z,-2.06
2022-12-19T01:37:38.181Z,-2.06
2022-12-19T01:40:08.985Z,-2.04
2022-12-19T01:42:38.271Z,-2.03
2022-12-19T01:45:33.957Z,-2.03
2022-12-19T01:48:13.824Z,-2.03
2022-12-19T01:51:01.325Z,-2.05
2022-12-19T01:53:34.623Z,-2.01
2022-12-19T01:56:07.894Z,-1.99
2022-12-19T01:58:36.816Z,-1.93
2022-12-19T02:01:04.857Z,-1.94
2022-12-19T02:03:35.019Z,-1.95
2022-12-19T02:06:05.677Z,-1.93
2022-12-19T02:08:34.285Z,-1.93
2022-12-19T02:11:04.407Z,-1.94
2022-12-19T02:13:32.689Z,-1.92
2022-12-19T02:16:05.697Z,-1.93
2022-12-19T02:18:44.460Z,-1.91
2022-12-19T02:21:33.291Z,-1.93
2022-12-19T02:24:51.871Z,-1.92
2022-12-19T02:27:40.088Z,-1.92
2022-12-19T02:30:14.316Z,-1.93
2022-12-19T02:32:51.023Z,-1.92
2022-12-19T02:35:26.999Z,-1.93
2022-12-19T02:38:05.417Z,-1.93
2022-12-19T02:40:43.522Z,-1.91
2022-12-19T02:43:15.021Z,-1.94
2022-12-19T02:45:44.159Z,-1.92
2022-12-19T02:48:19.119Z,-1.95
2022-12-19T02:50:50.392Z,-1.91
2022-12-19T02:53:23.779Z,-1.89
2022-12-19T02:56:10.604Z,-1.88
2022-12-19T02:58:59.332Z,-1.86
2022-12-19T03:01:42.431Z,-1.83
2022-12-19T03:04:17.089Z,-1.80
2022-12-19T03:06:54.508Z,-1.84
2022-12-19T03:09:31.134Z,-1.85
2022-12-19T03:12:04.354Z,-1.86
2022-12-19T03:14:34.024Z,-1.88
2022-12-19T03:17:05.711Z,-1.87
2022-12-19T03:19:35.923Z,-1.82
2022-12-19T03:22:03.684Z,-1.79
2022-12-19T03:24:31.746Z,-1.83
2022-12-19T03:27:04.006Z,-1.81
2022-12-19T03:29:35.326Z,-1.82
2022-12-19T03:32:15.151Z,-1.84
2022-12-19T03:34:48.460Z,-1.83
2022-12-19T03:37:21.018Z,-1.80
2022-12-19T03:39:53.745Z,-1.78
2022-12-19T03:42:41.674Z,-1.79
2022-12-19T03:45:11.392Z,-1.80
2022-12-19T03:47:43.154Z,-1.80
2022-12-19T03:50:12.581Z,-1.77
2022-12-19T03:52:46.770Z,-1.76
2022-12-19T03:55:19.590Z,-1.77
2022-12-19T03:57:55.404Z,-1.77
2022-12-19T04:00:24.942Z,-1.77
2022-12-19T04:02:56.193Z,-1.75
2022-12-19T04:05:27.856Z,-1.72
2022-12-19T04:07:59.551Z,-1.69
2022-12-19T04:10:29.437Z,-1.70
2022-12-19T04:13:01.242Z,-1.67
2022-12-19T04:15:35.401Z,-1.66
2022-12-19T04:18:06.525Z,-1.65
2022-12-19T04:20:40.004Z,-1.63
2022-12-19T04:23:12.766Z,-1.65
2022-12-19T04:25:44.074Z,-1.64
2022-12-19T04:28:16.162Z,-1.68
2022-12-19T04:30:46.113Z,-1.66
2022-12-19T04:33:13.908Z,-1.64
2022-12-19T04:35:43.163Z,-1.63
2022-12-19T04:38:10.938Z,-1.61
2022-12-19T04:40:41.584Z,-1.61
2022-12-19T04:43:09.789Z,-1.64
2022-12-19T04:45:37.887Z,-1.63
2022-12-19T04:48:06.049Z,-1.64
2022-12-19T04:50:36.513Z,-1.63
2022-12-19T04:53:06.689Z,-1.62
2022-12-19T04:55:34.793Z,-1.59
2022-12-19T04:58:05.313Z,-1.59
2022-12-19T05:00:33.566Z,-1.56
2022-12-19T05:03:01.598Z,-1.52
2022-12-19T05:05:29.787Z,-1.51
2022-12-19T05:07:59.014Z,-1.48
2022-12-19T05:10:28.186Z,-1.47
2022-12-19T05:12:56.144Z,-1.47
2022-12-19T05:15:23.972Z,-1.46
2022-12-19T05:17:51.703Z,-1.43
2022-12-19T05:20:19.521Z,-1.44
2022-12-19T05:22:47.303Z,-1.44
2022-12-19T05:25:15.184Z,-1.40
2022-12-19T05:27:44.395Z,-1.38
2022-12-19T05:30:13.072Z,-1.37
2022-12-19T05:32:40.907Z,-1.37
2022-12-19T05:35:09.001Z,-1.40
2022-12-19T05:37:36.809Z,-1.37
2022-12-19T05:40:05.112Z,-1.32
2022-12-19T05:42:32.919Z,-1.33
2022-12-19T05:45:02.414Z,-1.33
2022-12-19T05:47:30.260Z,-1.31
2022-12-19T05:49:58.046Z,-1.27
2022-12-19T05:52:25.809Z,-1.30
2022-12-19T05:54:53.725Z,-1.28
2022-12-19T05:57:21.580Z,-1.31
2022-12-19T05:59:49.385Z,-1.30
2022-12-19T06:02:18.703Z,-1.26
2022-12-19T06:04:46.554Z,-1.24
2022-12-19T06:07:19.242Z,-1.22
2022-12-19T06:09:48.587Z,-1.22
2022-12-19T06:12:16.508Z,-1.26
2022-12-19T06:14:46.020Z,-1.25
2022-12-19T06:17:13.817Z,-1.23
2022-12-19T06:19:43.164Z,-1.25
2022-12-19T06:22:13.569Z,-1.24
2022-12-19T06:24:41.369Z,-1.23
2022-12-19T06:27:09.938Z,-1.21
2022-12-19T06:29:37.840Z,-1.18
2022-12-19T06:32:05.919Z,-1.20
2022-12-19T06:35:02.620Z,-1.21
2022-12-19T06:37:22.881Z,-1.17
2022-12-19T06:39:52.058Z,-1.16
2022-12-19T06:42:24.927Z,-1.17
2022-12-19T06:44:54.356Z,-1.18
2022-12-19T06:47:24.567Z,-1.21
2022-12-19T06:49:52.581Z,-1.17
2022-12-19T06:52:20.406Z,-1.17
2022-12-19T06:54:49.587Z,-1.17
2022-12-19T06:57:17.424Z,-1.13
2022-12-19T06:59:45.181Z,-1.12
2022-12-19T07:02:28.502Z,-1.12
2022-12-19T07:05:01.531Z,-1.09
2022-12-19T07:07:30.188Z,-1.07
2022-12-19T07:09:59.335Z,-1.08
2022-12-19T07:12:27.497Z,-1.06
2022-12-19T07:14:55.257Z,-1.04
2022-12-19T07:17:25.569Z,-1.01
2022-12-19T07:19:55.389Z,-0.99
2022-12-19T07:22:23.721Z,-0.95
2022-12-19T07:24:51.901Z,-0.94
2022-12-19T07:27:22.849Z,-0.90
2022-12-19T07:29:50.792Z,-0.88
2022-12-19T07:32:18.590Z,-0.85
2022-12-19T07:34:46.410Z,-0.81
2022-12-19T07:37:14.230Z,-0.78
2022-12-19T07:39:42.087Z,-0.76
2022-12-19T07:42:09.937Z,-0.74
2022-12-19T07:44:39.177Z,-0.71
2022-12-19T07:47:09.846Z,-0.66
2022-12-19T07:49:37.867Z,-0.62
2022-12-19T07:52:05.755Z,-0.57
2022-12-19T07:54:33.607Z,-0.50
2022-12-19T07:57:02.538Z,-0.49
2022-12-19T07:59:33.345Z,-0.45
2022-12-19T08:02:07.942Z,-0.42
2022-12-19T08:04:35.970Z,-0.39
2022-12-19T08:07:03.737Z,-0.39
2022-12-19T08:09:31.984Z,-0.36
2022-12-19T08:12:00.153Z,-0.31
2022-12-19T08:14:28.225Z,-0.28
2022-12-19T08:17:19.853Z,-0.27
2022-12-19T08:19:45.279Z,-0.21
2022-12-19T08:22:13.112Z,-0.18
2022-12-19T08:24:40.975Z,-0.21
2022-12-19T08:27:08.799Z,-0.23
2022-12-19T08:29:36.586Z,-0.22
2022-12-19T08:32:04.587Z,-0.23
2022-12-19T08:34:32.353Z,-0.22
2022-12-19T08:37:01.507Z,-0.26
2022-12-19T08:39:29.341Z,-0.23
2022-12-19T08:41:57.174Z,-0.22
2022-12-19T08:44:25.027Z,-0.17
2022-12-19T08:46:52.908Z,-0.15
2022-12-19T08:49:20.957Z,-0.14
2022-12-19T08:51:49.927Z,-0.11
2022-12-19T08:54:19.283Z,-0.08
2022-12-19T08:56:47.306Z,-0.08
2022-12-19T08:59:21.135Z,-0.06
2022-12-19T09:01:58.995Z,-0.03
2022-12-19T09:05:51.600Z,-0.02
2022-12-19T09:07:15.722Z,-0.02
2022-12-19T09:09:45.229Z,-0.01
2022-12-19T09:12:14.160Z,0.03
2022-12-19T09:14:42.202Z,0.03
2022-12-19T09:17:10.222Z,0.02
2022-12-19T09:19:38.203Z,0.05
2022-12-19T09:22:07.057Z,0.03
2022-12-19T09:24:34.936Z,0.09
2022-12-19T09:27:04.413Z,0.08
2022-12-19T09:29:35.593Z,0.11
2022-12-19T09:32:04.191Z,0.15
2022-12-19T09:34:37.000Z,0.18
2022-12-19T09:37:08.275Z,0.16
2022-12-19T09:39:37.170Z,0.18
2022-12-19T09:42:54.017Z,0.21
2022-12-19T09:45:33.177Z,0.22
2022-12-19T09:48:02.639Z,0.26
2022-12-19T09:50:46.734Z,0.29
2022-12-19T09:53:23.703Z,0.33
2022-12-19T09:55:55.902Z,0.42
2022-12-19T09:58:35.107Z,0.45
2022-12-19T10:01:08.351Z,0.48
2022-12-19T10:03:40.197Z,0.49
2022-12-19T10:07:16.033Z,0.49
2022-12-19T10:10:11.750Z,0.53
2022-12-19T10:12:38.829Z,0.52
2022-12-19T10:15:19.630Z,0.56
2022-12-19T10:18:06.290Z,0.59
2022-12-19T10:20:38.568Z,0.58
2022-12-19T10:23:26.130Z,0.56
2022-12-19T10:26:01.544Z,0.58
2022-12-19T10:28:52.267Z,0.59
2022-12-19T10:31:28.876Z,0.61
2022-12-19T10:34:02.688Z,0.63
2022-12-19T10:37:11.862Z,0.64
2022-12-19T10:39:30.943Z,0.67
2022-12-19T10:42:09.563Z,0.70
2022-12-19T10:44:41.156Z,0.73
2022-12-19T10:47:16.489Z,0.80
2022-12-19T10:49:44.430Z,0.81
2022-12-19T10:52:13.810Z,0.83
2022-12-19T10:54:43.778Z,0.87
2022-12-19T10:57:26.447Z,0.89
2022-12-19T10:59:59.201Z,0.94
2022-12-19T11:02:42.440Z,0.93
2022-12-19T11:05:26.499Z,0.99
2022-12-19T11:08:01.730Z,0.99
2022-12-19T11:10:49.863Z,1.04
2022-12-19T11:18:27.698Z,1.08
2022-12-19T11:21:46.328Z,1.13
2022-12-19T11:29:16.963Z,1.15
2022-12-19T11:29:33.479Z,1.13
2022-12-19T11:29:54.650Z,1.13
2022-12-19T11:30:08.860Z,1.13
2022-12-19T11:31:42.898Z,1.13
2022-12-19T11:33:54.369Z,1.12
2022-12-19T11:36:32.626Z,1.14
2022-12-19T11:39:01.044Z,1.18
2022-12-19T11:41:34.040Z,1.24
2022-12-19T11:44:04.389Z,1.25
2022-12-19T11:46:41.618Z,1.31
2022-12-19T11:49:16.570Z,1.30
2022-12-19T11:51:52.123Z,1.36
2022-12-19T11:54:24.150Z,1.35
2022-12-19T11:56:52.035Z,1.39
2022-12-19T11:59:21.659Z,1.41
2022-12-19T12:02:07.749Z,1.41
2022-12-19T12:05:09.419Z,1.47
2022-12-19T12:08:09.079Z,1.51
2022-12-19T12:14:39.756Z,1.55
2022-12-19T12:20:33.850Z,1.55
2022-12-19T12:28:16.450Z,1.54
2022-12-19T12:31:32.292Z,1.57
2022-12-19T12:31:41.759Z,1.73
2022-12-19T12:31:56.861Z,1.67
2022-12-19T12:32:04.003Z,1.61
2022-12-19T12:35:41.443Z,1.78
2022-12-19T12:40:30.435Z,1.86
2022-12-19T12:43:10.588Z,1.88
2022-12-19T12:45:41.024Z,1.87
2022-12-19T12:48:20.523Z,1.90
2022-12-19T12:50:55.017Z,1.90
2022-12-19T12:53:27.481Z,1.92
2022-12-19T12:56:00.221Z,1.97
2022-12-19T12:58:45.911Z,1.99
2022-12-19T13:01:18.323Z,2.01
2022-12-19T13:03:55.824Z,1.98
2022-12-19T13:06:27.866Z,2.00
2022-12-19T13:09:05.425Z,2.01
2022-12-19T13:11:59.166Z,2.03
2022-12-19T13:14:48.903Z,2.04
2022-12-19T13:17:25.429Z,2.02
2022-12-19T13:19:56.248Z,2.07
2022-12-19T13:22:40.430Z,2.06
2022-12-19T13:25:44.931Z,2.01
2022-12-19T13:28:41.910Z,2.00
2022-12-19T13:31:22.805Z,1.99
2022-12-19T13:34:20.951Z,1.92
2022-12-19T13:39:54.295Z,1.91
2022-12-19T13:39:57.714Z,1.94
2022-12-19T13:42:55.101Z,1.94
2022-12-19T13:45:43.080Z,1.90
2022-12-19T13:48:16.878Z,1.90
2022-12-19T13:50:49.471Z,1.92
2022-12-19T13:53:18.514Z,1.92
2022-12-19T13:55:46.419Z,1.95
2022-12-19T13:58:28.816Z,1.95
2022-12-19T14:00:59.872Z,1.96
2022-12-19T14:03:35.501Z,1.98
2022-12-19T14:06:16.422Z,1.96
2022-12-19T14:08:48.298Z,1.97
2022-12-19T14:12:18.101Z,1.97
2022-12-19T14:14:47.880Z,1.95
2022-12-19T14:17:19.563Z,1.95
2022-12-19T14:19:50.238Z,1.93
2022-12-19T14:22:25.786Z,1.91
2022-12-19T14:24:55.829Z,1.87
2022-12-19T14:28:18.526Z,1.86
2022-12-19T14:30:39.797Z,1.85
2022-12-19T14:33:46.719Z,1.83
2022-12-19T14:36:10.776Z,1.83
2022-12-19T14:39:22.086Z,1.80
2022-12-19T14:42:01.897Z,1.71
2022-12-19T14:52:08.633Z,1.73
2022-12-19T14:54:04.028Z,1.74
2022-12-19T14:54:08.442Z,1.76
2022-12-19T14:54:30.695Z,1.73
2022-12-19T14:59:02.065Z,1.71
2022-12-19T15:01:32.431Z,1.69
2022-12-19T15:04:51.549Z,1.67
2022-12-19T15:07:08.077Z,1.65
2022-12-19T15:11:08.585Z,1.64
2022-12-19T15:14:48.131Z,1.64
2022-12-19T15:15:59.256Z,1.54
2022-12-19T15:18:30.115Z,1.53
2022-12-19T15:21:00.173Z,1.52
2022-12-19T15:23:30.237Z,1.52
2022-12-19T15:26:05.208Z,1.53
2022-12-19T15:28:39.451Z,1.55
2022-12-19T15:31:15.083Z,1.53
2022-12-19T15:34:06.737Z,1.52
2022-12-19T15:36:30.838Z,1.47
2022-12-19T15:39:00.109Z,1.44
2022-12-19T15:41:28.575Z,1.43
2022-12-19T15:44:05.419Z,1.42
2022-12-19T15:46:34.008Z,1.37
2022-12-19T15:49:02.370Z,1.33
2022-12-19T15:51:30.311Z,1.30
2022-12-19T15:54:22.156Z,1.31
2022-12-19T15:56:51.194Z,1.30
2022-12-19T15:59:31.240Z,1.29
2022-12-19T16:02:14.001Z,1.29
2022-12-19T16:04:42.093Z,1.30
2022-12-19T16:07:14.789Z,1.27
2022-12-19T16:09:44.058Z,1.26
2022-12-19T16:12:15.871Z,1.26
2022-12-19T16:14:44.322Z,1.29
2022-12-19T16:17:19.050Z,1.30
2022-12-19T16:19:47.119Z,1.31
2022-12-19T16:22:20.477Z,1.32
2022-12-19T16:24:49.923Z,1.31
2022-12-19T16:27:24.673Z,1.29
2022-12-19T16:29:53.299Z,1.29
2022-12-19T16:32:24.017Z,1.29
2022-12-19T16:34:52.307Z,1.30
2022-12-19T16:37:20.184Z,1.30
2022-12-19T16:39:49.356Z,1.29
2022-12-19T16:42:18.344Z,1.31
2022-12-19T16:44:48.174Z,1.29
2022-12-19T16:47:18.708Z,1.26
2022-12-19T16:49:46.652Z,1.26
2022-12-19T16:52:14.488Z,1.25
2022-12-19T16:54:42.275Z,1.25
2022-12-19T16:57:20.101Z,1.25
2022-12-19T16:59:49.477Z,1.26
2022-12-19T17:02:39.128Z,1.29
2022-12-19T17:05:08.254Z,1.26
2022-12-19T17:07:36.381Z,1.27
2022-12-19T17:10:04.389Z,1.28
2022-12-19T17:12:33.875Z,1.28
2022-12-19T17:15:09.519Z,1.29
2022-12-19T17:17:37.377Z,1.31
2022-12-19T17:20:05.845Z,1.29
2022-12-19T17:22:33.899Z,1.31
2022-12-19T17:25:01.921Z,1.30
2022-12-19T17:27:29.688Z,1.34
2022-12-19T17:29:58.886Z,1.36
2022-12-19T17:32:26.764Z,1.35
2022-12-19T17:34:54.549Z,1.35
2022-12-19T17:37:22.438Z,1.36
2022-12-19T17:39:50.281Z,1.42
2022-12-19T17:42:22.785Z,1.41
2022-12-19T17:44:50.641Z,1.42
2022-12-19T17:47:21.953Z,1.45
2022-12-19T17:49:50.259Z,1.47
2022-12-19T17:52:20.299Z,1.47
2022-12-19T17:54:48.477Z,1.49
2022-12-19T17:57:17.795Z,1.48
2022-12-19T17:59:46.580Z,1.49
2022-12-19T18:02:25.886Z,1.48
2022-12-19T18:04:54.144Z,1.48
2022-12-19T18:07:22.093Z,1.47
2022-12-19T18:09:49.886Z,1.46
2022-12-19T18:12:17.721Z,1.48
2022-12-19T18:14:45.543Z,1.47
2022-12-19T18:17:14.791Z,1.46
2022-12-19T18:19:44.183Z,1.45
2022-12-19T18:22:13.743Z,1.45
2022-12-19T18:24:41.943Z,1.42
2022-12-19T18:27:09.773Z,1.36
2022-12-19T18:29:37.583Z,1.38
2022-12-19T18:32:05.664Z,1.39
2022-12-19T18:34:35.623Z,1.38
2022-12-19T18:37:05.562Z,1.38
2022-12-19T18:39:34.260Z,1.42
2022-12-19T18:42:02.179Z,1.42
2022-12-19T18:44:30.013Z,1.43
2022-12-19T18:46:58.969Z,1.46
2022-12-19T18:49:28.786Z,1.44
2022-12-19T18:51:56.635Z,1.41
2022-12-19T18:54:25.952Z,1.44
2022-12-19T18:56:53.912Z,1.44
2022-12-19T18:59:21.770Z,1.41
2022-12-19T19:01:49.679Z,1.39
2022-12-19T19:04:18.440Z,1.37
2022-12-19T19:06:51.641Z,1.35
2022-12-19T19:09:20.980Z,1.33
2022-12-19T19:11:50.261Z,1.32
2022-12-19T19:14:18.921Z,1.34
2022-12-19T19:16:46.970Z,1.35
2022-12-19T19:19:19.471Z,1.36
2022-12-19T19:21:47.554Z,1.37
2022-12-19T19:24:18.445Z,1.41
2022-12-19T19:26:46.294Z,1.43
2022-12-19T19:29:15.754Z,1.44
2022-12-19T19:31:46.876Z,1.50
2022-12-19T19:34:19.476Z,1.55
2022-12-19T19:36:53.667Z,1.51
2022-12-19T19:39:22.845Z,1.49
2022-12-19T19:41:50.757Z,1.51
2022-12-19T19:44:19.989Z,1.55
2022-12-19T19:46:48.736Z,1.53
2022-12-19T19:49:16.810Z,1.56
2022-12-19T19:51:44.659Z,1.56
2022-12-19T19:54:12.618Z,1.58
2022-12-19T19:56:40.452Z,1.57
2022-12-19T19:59:08.434Z,1.57
2022-12-19T20:01:37.727Z,1.56
2022-12-19T20:04:06.110Z,1.54
2022-12-19T20:06:34.078Z,1.51
2022-12-19T20:09:02.208Z,1.49
2022-12-19T20:11:30.605Z,1.49
2022-12-19T20:13:58.453Z,1.52
2022-12-19T20:16:26.490Z,1.53
2022-12-19T20:18:55.784Z,1.52
2022-12-19T20:21:24.670Z,1.53
2022-12-19T20:23:52.504Z,1.55
2022-12-19T20:26:20.395Z,1.55
2022-12-19T20:28:50.036Z,1.58
2022-12-19T20:31:18.982Z,1.55
2022-12-19T20:33:48.440Z,1.58
2022-12-19T20:36:18.336Z,1.65
2022-12-19T20:38:47.177Z,1.66
2022-12-19T20:41:15.165Z,1.64
2022-12-19T20:43:43.322Z,1.59
2022-12-19T20:46:13.261Z,1.59
2022-12-19T20:48:41.581Z,1.63
2022-12-19T20:51:10.321Z,1.62
2022-12-19T20:53:41.661Z,1.58
2022-12-19T20:56:11.914Z,1.58
2022-12-19T20:58:40.244Z,1.61
2022-12-19T21:01:10.298Z,1.62
2022-12-19T21:03:38.552Z,1.64
2022-12-19T21:06:07.886Z,1.63
2022-12-19T21:08:36.310Z,1.63
2022-12-19T21:11:07.134Z,1.59
2022-12-19T21:13:35.112Z,1.58
2022-12-19T21:16:06.980Z,1.56
2022-12-19T21:18:35.466Z,1.52
2022-12-19T21:21:04.603Z,1.50
2022-12-19T21:23:33.018Z,1.47
2022-12-19T21:26:02.629Z,1.42
2022-12-19T21:28:32.027Z,1.42
2022-12-19T21:31:02.222Z,1.42
2022-12-19T21:33:30.765Z,1.37
2022-12-19T21:35:58.668Z,1.34
2022-12-19T21:38:26.478Z,1.33
2022-12-19T21:40:54.313Z,1.28
2022-12-19T21:43:22.439Z,1.27
2022-12-19T21:45:51.599Z,1.28
2022-12-19T21:48:19.441Z,1.26
2022-12-19T21:50:47.439Z,1.27
2022-12-19T21:53:15.434Z,1.27
2022-12-19T21:55:43.277Z,1.29
2022-12-19T21:58:11.110Z,1.28
2022-12-19T22:00:38.995Z,1.29
2022-12-19T22:03:15.826Z,1.26
2022-12-19T22:05:43.865Z,1.24
2022-12-19T22:08:12.145Z,1.25
2022-12-19T22:10:40.259Z,1.23
2022-12-19T22:13:08.090Z,1.18
2022-12-19T22:15:36.737Z,1.20
2022-12-19T22:18:04.844Z,1.20
2022-12-19T22:20:34.037Z,1.23
2022-12-19T22:23:01.981Z,1.27
2022-12-19T22:25:29.842Z,1.25
2022-12-19T22:27:57.706Z,1.23
2022-12-19T22:30:25.700Z,1.24
2022-12-19T22:32:53.570Z,1.24
2022-12-19T22:35:21.441Z,1.29
2022-12-19T22:37:50.758Z,1.30
2022-12-19T22:40:18.688Z,1.28
2022-12-19T22:42:46.510Z,1.29
2022-12-19T22:45:14.314Z,1.29
2022-12-19T22:47:42.652Z,1.31
2022-12-19T22:50:11.466Z,1.31
2022-12-19T22:52:39.829Z,1.29
2022-12-19T22:55:09.932Z,1.33
2022-12-19T22:57:37.742Z,1.32
2022-12-19T23:00:07.528Z,1.32
2022-12-19T23:02:35.510Z,1.33
2022-12-19T23:05:03.554Z,1.36
2022-12-19T23:07:31.373Z,1.35
2022-12-19T23:09:59.213Z,1.39
2022-12-19T23:12:28.797Z,1.40
2022-12-19T23:14:56.661Z,1.39
2022-12-19T23:17:24.720Z,1.36
2022-12-19T23:19:52.480Z,1.40
2022-12-19T23:22:20.314Z,1.41
2022-12-19T23:24:48.442Z,1.42
2022-12-19T23:27:16.360Z,1.43
2022-12-19T23:29:45.863Z,1.43
2022-12-19T23:32:13.802Z,1.43
2022-12-19T23:34:41.637Z,1.45
2022-12-19T23:37:11.554Z,1.45
2022-12-19T23:39:40.158Z,1.47
2022-12-19T23:42:07.970Z,1.50
2022-12-19T23:44:36.025Z,1.51
2022-12-19T23:47:05.345Z,1.52
2022-12-19T23:49:34.214Z,1.49
2022-12-19T23:52:02.193Z,1.53
2022-12-19T23:54:30.017Z,1.56
2022-12-19T23:56:58.014Z,1.58
2022-12-19T23:59:25.857Z,1.58
